sensor_id;sensor_type;location;lat;lon;timestamp;pressure;altitude;pressure_sealevel;temperature;humidity
10824;BME280;39116;59.332;18.034;2023-04-08T00:00:59;102516.88;;;4.28;100.00
10824;BME280;39116;59.332;18.034;2023-04-08T00:03:21;102496.81;;;4.37;100.00
10824;BME280;39116;59.332;18.034;2023-04-08T00:05:43;102504.88;;;4.56;100.00
10824;BME280;39116;59.332;18.034;2023-04-08T00:08:05;102518.97;;;4.76;100.00
10824;BME280;39116;59.332;18.034;2023-04-08T00:10:27;102512.75;;;4.73;100.00
10824;BME280;39116;59.332;18.034;2023-04-08T00:12:49;102521.63;;;4.63;100.00
10824;BME280;39116;59.332;18.034;2023-04-08T00:15:12;102518.19;;;4.49;100.00
10824;BME280;39116;59.332;18.034;2023-04-08T00:17:34;102516.09;;;4.72;100.00
10824;BME280;39116;59.332;18.034;2023-04-08T00:19:56;102522.97;;;4.71;100.00
10824;BME280;39116;59.332;18.034;2023-04-08T00:22:18;102370.16;;;3.89;100.00
10824;BME280;39116;59.332;18.034;2023-04-08T00:24:40;102512.81;;;4.59;100.00
10824;BME280;39116;59.332;18.034;2023-04-08T00:27:02;102527.88;;;4.67;100.00
10824;BME280;39116;59.332;18.034;2023-04-08T00:29:24;102500.75;;;4.45;100.00
10824;BME280;39116;59.332;18.034;2023-04-08T00:31:48;102518.22;;;4.64;100.00
10824;BME280;39116;59.332;18.034;2023-04-08T00:34:10;102520.28;;;4.70;100.00
10824;BME280;39116;59.332;18.034;2023-04-08T00:36:32;102519.50;;;4.71;100.00
10824;BME280;39116;59.332;18.034;2023-04-08T00:38:55;102516.22;;;4.45;100.00
10824;BME280;39116;59.332;18.034;2023-04-08T00:41:17;102518.13;;;4.63;100.00
10824;BME280;39116;59.332;18.034;2023-04-08T00:43:39;102521.38;;;4.73;100.00
10824;BME280;39116;59.332;18.034;2023-04-08T00:46:01;102526.81;;;4.78;100.00
10824;BME280;39116;59.332;18.034;2023-04-08T00:48:25;102523.06;;;4.73;100.00
10824;BME280;39116;59.332;18.034;2023-04-08T00:50:47;102522.09;;;4.71;100.00
10824;BME280;39116;59.332;18.034;2023-04-08T00:53:09;102529.09;;;4.73;100.00
10824;BME280;39116;59.332;18.034;2023-04-08T00:55:32;102517.81;;;4.43;100.00
10824;BME280;39116;59.332;18.034;2023-04-08T00:57:55;102527.06;;;4.83;100.00
10824;BME280;39116;59.332;18.034;2023-04-08T01:00:17;102523.63;;;4.82;100.00
10824;BME280;39116;59.332;18.034;2023-04-08T01:02:44;102449.13;;;4.30;100.00
10824;BME280;39116;59.332;18.034;2023-04-08T01:05:16;102516.50;;;4.78;100.00
10824;BME280;39116;59.332;18.034;2023-04-08T01:07:44;102531.66;;;4.87;100.00
10824;BME280;39116;59.332;18.034;2023-04-08T01:10:12;102532.16;;;4.81;100.00
10824;BME280;39116;59.332;18.034;2023-04-08T01:12:40;102524.69;;;5.01;100.00
10824;BME280;39116;59.332;18.034;2023-04-08T01:15:05;102527.00;;;4.81;100.00
10824;BME280;39116;59.332;18.034;2023-04-08T01:17:28;102520.25;;;4.83;100.00
10824;BME280;39116;59.332;18.034;2023-04-08T01:19:53;102526.63;;;4.90;100.00
10824;BME280;39116;59.332;18.034;2023-04-08T01:22:28;102513.28;;;4.82;100.00
10824;BME280;39116;59.332;18.034;2023-04-08T01:24:59;102521.84;;;4.81;100.00
10824;BME280;39116;59.332;18.034;2023-04-08T01:27:23;102392.44;;;4.02;100.00
10824;BME280;39116;59.332;18.034;2023-04-08T01:29:47;102476.59;;;4.58;100.00
10824;BME280;39116;59.332;18.034;2023-04-08T01:32:11;102516.97;;;4.57;100.00
10824;BME280;39116;59.332;18.034;2023-04-08T01:34:34;102527.03;;;4.68;100.00
10824;BME280;39116;59.332;18.034;2023-04-08T01:36:58;102517.91;;;4.73;100.00
10824;BME280;39116;59.332;18.034;2023-04-08T01:39:22;102479.63;;;4.37;100.00
10824;BME280;39116;59.332;18.034;2023-04-08T01:41:45;102527.13;;;4.54;100.00
10824;BME280;39116;59.332;18.034;2023-04-08T01:44:09;102493.59;;;4.54;100.00
10824;BME280;39116;59.332;18.034;2023-04-08T01:46:32;102530.38;;;4.80;100.00
10824;BME280;39116;59.332;18.034;2023-04-08T01:48:56;102531.00;;;4.76;100.00
10824;BME280;39116;59.332;18.034;2023-04-08T01:51:20;102530.56;;;4.83;100.00
10824;BME280;39116;59.332;18.034;2023-04-08T01:53:43;102529.59;;;4.53;100.00
10824;BME280;39116;59.332;18.034;2023-04-08T01:56:08;102536.59;;;4.69;100.00
10824;BME280;39116;59.332;18.034;2023-04-08T01:58:37;102527.88;;;4.82;100.00
10824;BME280;39116;59.332;18.034;2023-04-08T02:01:03;102532.22;;;4.83;100.00
10824;BME280;39116;59.332;18.034;2023-04-08T02:03:27;102542.84;;;4.87;100.00
10824;BME280;39116;59.332;18.034;2023-04-08T02:05:50;102527.13;;;4.54;100.00
10824;BME280;39116;59.332;18.034;2023-04-08T02:08:12;102544.41;;;4.70;100.00
10824;BME280;39116;59.332;18.034;2023-04-08T02:10:34;102542.84;;;4.87;100.00
10824;BME280;39116;59.332;18.034;2023-04-08T02:12:56;102534.38;;;4.75;100.00
10824;BME280;39116;59.332;18.034;2023-04-08T02:15:18;102528.44;;;4.63;100.00
10824;BME280;39116;59.332;18.034;2023-04-08T02:17:45;102544.03;;;4.92;100.00
10824;BME280;39116;59.332;18.034;2023-04-08T02:20:10;102527.25;;;4.86;100.00
10824;BME280;39116;59.332;18.034;2023-04-08T02:22:41;102536.75;;;4.72;100.00
10824;BME280;39116;59.332;18.034;2023-04-08T02:25:07;102531.53;;;4.85;100.00
10824;BME280;39116;59.332;18.034;2023-04-08T02:27:33;102517.59;;;4.96;100.00
10824;BME280;39116;59.332;18.034;2023-04-08T02:29:56;102534.13;;;4.85;100.00
10824;BME280;39116;59.332;18.034;2023-04-08T02:32:19;102536.72;;;4.85;100.00
10824;BME280;39116;59.332;18.034;2023-04-08T02:34:43;102535.47;;;4.93;100.00
10824;BME280;39116;59.332;18.034;2023-04-08T02:37:06;102550.94;;;4.93;100.00
10824;BME280;39116;59.332;18.034;2023-04-08T02:39:31;102530.03;;;4.89;100.00
10824;BME280;39116;59.332;18.034;2023-04-08T02:41:53;102531.69;;;4.73;100.00
10824;BME280;39116;59.332;18.034;2023-04-08T02:44:15;102535.09;;;4.72;100.00
10824;BME280;39116;59.332;18.034;2023-04-08T02:46:37;102541.34;;;4.63;100.00
10824;BME280;39116;59.332;18.034;2023-04-08T02:48:59;102542.28;;;4.78;100.00
10824;BME280;39116;59.332;18.034;2023-04-08T02:51:22;102540.06;;;4.84;100.00
10824;BME280;39116;59.332;18.034;2023-04-08T02:53:45;102537.13;;;4.78;100.00
10824;BME280;39116;59.332;18.034;2023-04-08T02:56:09;102541.88;;;4.57;100.00
10824;BME280;39116;59.332;18.034;2023-04-08T02:58:31;102536.25;;;4.77;100.00
10824;BME280;39116;59.332;18.034;2023-04-08T03:00:53;102532.84;;;4.78;100.00
10824;BME280;39116;59.332;18.034;2023-04-08T03:03:15;102540.69;;;4.80;100.00
10824;BME280;39116;59.332;18.034;2023-04-08T03:05:37;102545.13;;;4.83;100.00
10824;BME280;39116;59.332;18.034;2023-04-08T03:08:00;102541.44;;;4.92;100.00
10824;BME280;39116;59.332;18.034;2023-04-08T03:10:22;102548.63;;;4.83;100.00
10824;BME280;39116;59.332;18.034;2023-04-08T03:12:44;102549.97;;;4.91;100.00
10824;BME280;39116;59.332;18.034;2023-04-08T03:15:07;102556.81;;;4.76;100.00
10824;BME280;39116;59.332;18.034;2023-04-08T03:17:28;102545.09;;;4.68;100.00
10824;BME280;39116;59.332;18.034;2023-04-08T03:19:53;102550.06;;;4.65;100.00
10824;BME280;39116;59.332;18.034;2023-04-08T03:22:15;102544.00;;;4.49;100.00
10824;BME280;39116;59.332;18.034;2023-04-08T03:24:38;102552.72;;;4.80;100.00
10824;BME280;39116;59.332;18.034;2023-04-08T03:27:00;102548.91;;;4.59;100.00
10824;BME280;39116;59.332;18.034;2023-04-08T03:29:22;102548.66;;;4.70;100.00
10824;BME280;39116;59.332;18.034;2023-04-08T03:31:44;102551.50;;;4.59;100.00
10824;BME280;39116;59.332;18.034;2023-04-08T03:34:06;102557.09;;;4.52;100.00
10824;BME280;39116;59.332;18.034;2023-04-08T03:36:28;102545.81;;;4.65;100.00
10824;BME280;39116;59.332;18.034;2023-04-08T03:38:50;102541.59;;;4.52;100.00
10824;BME280;39116;59.332;18.034;2023-04-08T03:41:13;102550.41;;;4.56;100.00
10824;BME280;39116;59.332;18.034;2023-04-08T03:43:35;102551.09;;;4.53;100.00
10824;BME280;39116;59.332;18.034;2023-04-08T03:45:57;102550.13;;;4.51;100.00
10824;BME280;39116;59.332;18.034;2023-04-08T03:48:19;102550.75;;;4.34;100.00
10824;BME280;39116;59.332;18.034;2023-04-08T03:50:41;102549.78;;;4.32;100.00
10824;BME280;39116;59.332;18.034;2023-04-08T03:53:03;102546.38;;;4.46;100.00
10824;BME280;39116;59.332;18.034;2023-04-08T03:55:25;102548.41;;;4.65;100.00
10824;BME280;39116;59.332;18.034;2023-04-08T03:57:48;102557.50;;;4.45;100.00
10824;BME280;39116;59.332;18.034;2023-04-08T04:00:11;102554.53;;;4.39;100.00
10824;BME280;39116;59.332;18.034;2023-04-08T04:02:33;102557.09;;;4.39;100.00
10824;BME280;39116;59.332;18.034;2023-04-08T04:04:55;102556.25;;;4.53;100.00
10824;BME280;39116;59.332;18.034;2023-04-08T04:07:17;102560.75;;;4.43;100.00
10824;BME280;39116;59.332;18.034;2023-04-08T04:09:39;102571.63;;;4.24;100.00
10824;BME280;39116;59.332;18.034;2023-04-08T04:12:01;102565.16;;;4.04;100.00
10824;BME280;39116;59.332;18.034;2023-04-08T04:14:24;102566.00;;;4.44;100.00
10824;BME280;39116;59.332;18.034;2023-04-08T04:16:46;102572.47;;;4.37;100.00
10824;BME280;39116;59.332;18.034;2023-04-08T04:19:08;102559.13;;;4.16;100.00
10824;BME280;39116;59.332;18.034;2023-04-08T04:21:30;102569.63;;;4.19;100.00
10824;BME280;39116;59.332;18.034;2023-04-08T04:23:52;102565.28;;;4.18;100.00
10824;BME280;39116;59.332;18.034;2023-04-08T04:26:14;102570.03;;;4.26;100.00
10824;BME280;39116;59.332;18.034;2023-04-08T04:28:36;102563.97;;;4.25;100.00
10824;BME280;39116;59.332;18.034;2023-04-08T04:30:59;102567.84;;;4.18;100.00
10824;BME280;39116;59.332;18.034;2023-04-08T04:33:21;102565.38;;;4.20;100.00
10824;BME280;39116;59.332;18.034;2023-04-08T04:35:43;102575.19;;;4.26;100.00
10824;BME280;39116;59.332;18.034;2023-04-08T04:38:05;102569.31;;;4.28;100.00
10824;BME280;39116;59.332;18.034;2023-04-08T04:40:31;102572.78;;;4.29;100.00
10824;BME280;39116;59.332;18.034;2023-04-08T04:42:53;102567.84;;;4.18;100.00
10824;BME280;39116;59.332;18.034;2023-04-08T04:45:15;102569.25;;;4.13;100.00
10824;BME280;39116;59.332;18.034;2023-04-08T04:47:38;102571.94;;;4.15;100.00
10824;BME280;39116;59.332;18.034;2023-04-08T04:50:00;102565.19;;;4.17;100.00
10824;BME280;39116;59.332;18.034;2023-04-08T04:52:22;102573.59;;;4.28;100.00
10824;BME280;39116;59.332;18.034;2023-04-08T04:54:44;102575.75;;;4.21;100.00
10824;BME280;39116;59.332;18.034;2023-04-08T04:57:06;102570.16;;;4.00;100.00
10824;BME280;39116;59.332;18.034;2023-04-08T04:59:28;102576.97;;;4.00;100.00
10824;BME280;39116;59.332;18.034;2023-04-08T05:01:50;102574.69;;;4.05;100.00
10824;BME280;39116;59.332;18.034;2023-04-08T05:04:13;102583.50;;;4.21;100.00
10824;BME280;39116;59.332;18.034;2023-04-08T05:06:35;102570.25;;;4.02;100.00
10824;BME280;39116;59.332;18.034;2023-04-08T05:08:57;102571.25;;;4.04;100.00
10824;BME280;39116;59.332;18.034;2023-04-08T05:11:19;102580.75;;;4.05;100.00
10824;BME280;39116;59.332;18.034;2023-04-08T05:13:41;102590.66;;;3.99;100.00
10824;BME280;39116;59.332;18.034;2023-04-08T05:16:03;102586.91;;;3.94;100.00
10824;BME280;39116;59.332;18.034;2023-04-08T05:18:25;102592.44;;;4.00;100.00
10824;BME280;39116;59.332;18.034;2023-04-08T05:20:49;102584.91;;;4.03;100.00
10824;BME280;39116;59.332;18.034;2023-04-08T05:23:11;102582.63;;;3.94;100.00
10824;BME280;39116;59.332;18.034;2023-04-08T05:25:33;102576.50;;;3.79;100.00
10824;BME280;39116;59.332;18.034;2023-04-08T05:27:54;102593.63;;;4.05;100.00
10824;BME280;39116;59.332;18.034;2023-04-08T05:30:17;102571.63;;;3.97;100.00
10824;BME280;39116;59.332;18.034;2023-04-08T05:32:39;102595.03;;;3.87;100.00
10824;BME280;39116;59.332;18.034;2023-04-08T05:35:01;102594.13;;;4.13;100.00
10824;BME280;39116;59.332;18.034;2023-04-08T05:37:25;102591.28;;;3.95;100.00
10824;BME280;39116;59.332;18.034;2023-04-08T05:39:46;102607.50;;;4.07;100.00
10824;BME280;39116;59.332;18.034;2023-04-08T05:42:08;102604.91;;;4.07;100.00
10824;BME280;39116;59.332;18.034;2023-04-08T05:44:32;102609.47;;;3.98;100.00
10824;BME280;39116;59.332;18.034;2023-04-08T05:46:54;102602.75;;;4.13;100.00
10824;BME280;39116;59.332;18.034;2023-04-08T05:49:17;102591.84;;;4.17;100.00
10824;BME280;39116;59.332;18.034;2023-04-08T05:51:39;102603.75;;;4.02;100.00
10824;BME280;39116;59.332;18.034;2023-04-08T05:54:03;102608.50;;;4.23;100.00
10824;BME280;39116;59.332;18.034;2023-04-08T05:56:25;102594.00;;;4.25;100.00
10824;BME280;39116;59.332;18.034;2023-04-08T05:58:47;102608.69;;;4.26;100.00
10824;BME280;39116;59.332;18.034;2023-04-08T06:01:08;102604.13;;;4.35;100.00
10824;BME280;39116;59.332;18.034;2023-04-08T06:03:30;102604.13;;;4.35;100.00
10824;BME280;39116;59.332;18.034;2023-04-08T06:05:52;102606.28;;;4.29;100.00
10824;BME280;39116;59.332;18.034;2023-04-08T06:08:14;102608.56;;;4.37;100.00
10824;BME280;39116;59.332;18.034;2023-04-08T06:10:37;102606.88;;;4.51;100.00
10824;BME280;39116;59.332;18.034;2023-04-08T06:12:59;102604.84;;;4.61;100.00
10824;BME280;39116;59.332;18.034;2023-04-08T06:15:21;102610.44;;;4.53;100.00
10824;BME280;39116;59.332;18.034;2023-04-08T06:17:43;102618.06;;;4.65;100.00
10824;BME280;39116;59.332;18.034;2023-04-08T06:20:06;102620.63;;;4.93;100.00
10824;BME280;39116;59.332;18.034;2023-04-08T06:22:28;102619.53;;;4.90;100.00
10824;BME280;39116;59.332;18.034;2023-04-08T06:24:50;102618.31;;;4.83;100.00
10824;BME280;39116;59.332;18.034;2023-04-08T06:27:15;102616.72;;;4.72;100.00
10824;BME280;39116;59.332;18.034;2023-04-08T06:29:36;102610.31;;;4.65;100.00
10824;BME280;39116;59.332;18.034;2023-04-08T06:31:58;102627.66;;;4.68;100.00
10824;BME280;39116;59.332;18.034;2023-04-08T06:34:20;102617.13;;;4.78;100.00
10824;BME280;39116;59.332;18.034;2023-04-08T06:36:42;102634.09;;;4.74;100.00
10824;BME280;39116;59.332;18.034;2023-04-08T06:39:04;102629.03;;;4.76;100.00
10824;BME280;39116;59.332;18.034;2023-04-08T06:41:26;102626.78;;;4.67;100.00
10824;BME280;39116;59.332;18.034;2023-04-08T06:43:49;102626.16;;;4.85;100.00
10824;BME280;39116;59.332;18.034;2023-04-08T06:46:11;102636.47;;;4.85;100.00
10824;BME280;39116;59.332;18.034;2023-04-08T06:48:33;102632.22;;;5.00;100.00
10824;BME280;39116;59.332;18.034;2023-04-08T06:50:58;102634.38;;;5.07;100.00
10824;BME280;39116;59.332;18.034;2023-04-08T06:53:21;102628.66;;;4.98;100.00
10824;BME280;39116;59.332;18.034;2023-04-08T06:55:45;102633.06;;;5.14;100.00
10824;BME280;39116;59.332;18.034;2023-04-08T06:58:06;102631.50;;;5.31;100.00
10824;BME280;39116;59.332;18.034;2023-04-08T07:00:30;102641.91;;;5.32;100.00
10824;BME280;39116;59.332;18.034;2023-04-08T07:02:52;102632.25;;;5.15;100.00
10824;BME280;39116;59.332;18.034;2023-04-08T07:05:14;102638.34;;;5.30;100.00
10824;BME280;39116;59.332;18.034;2023-04-08T07:07:36;102638.03;;;5.39;100.00
10824;BME280;39116;59.332;18.034;2023-04-08T07:09:57;102483.53;;;4.59;100.00
10824;BME280;39116;59.332;18.034;2023-04-08T07:12:19;102641.44;;;5.53;100.00
10824;BME280;39116;59.332;18.034;2023-04-08T07:14:41;102643.22;;;5.69;100.00
10824;BME280;39116;59.332;18.034;2023-04-08T07:17:05;102640.19;;;5.61;100.00
10824;BME280;39116;59.332;18.034;2023-04-08T07:19:27;102654.78;;;5.76;100.00
10824;BME280;39116;59.332;18.034;2023-04-08T07:21:48;102656.22;;;5.70;100.00
10824;BME280;39116;59.332;18.034;2023-04-08T07:24:12;102649.91;;;5.65;100.00
10824;BME280;39116;59.332;18.034;2023-04-08T07:26:34;102649.63;;;5.76;100.00
10824;BME280;39116;59.332;18.034;2023-04-08T07:28:55;102649.63;;;5.76;100.00
10824;BME280;39116;59.332;18.034;2023-04-08T07:31:17;102655.19;;;5.97;100.00
10824;BME280;39116;59.332;18.034;2023-04-08T07:33:41;102648.56;;;6.17;100.00
10824;BME280;39116;59.332;18.034;2023-04-08T07:36:03;102649.28;;;5.99;100.00
10824;BME280;39116;59.332;18.034;2023-04-08T07:38:26;102657.47;;;6.22;100.00
10824;BME280;39116;59.332;18.034;2023-04-08T07:40:48;102656.75;;;6.24;100.00
10824;BME280;39116;59.332;18.034;2023-04-08T07:43:10;102663.19;;;6.16;100.00
10824;BME280;39116;59.332;18.034;2023-04-08T07:45:32;102664.03;;;6.46;100.00
10824;BME280;39116;59.332;18.034;2023-04-08T07:47:54;102656.97;;;6.44;100.00
10824;BME280;39116;59.332;18.034;2023-04-08T07:50:17;102663.13;;;6.46;100.00
10824;BME280;39116;59.332;18.034;2023-04-08T07:52:39;102654.94;;;6.38;100.00
10824;BME280;39116;59.332;18.034;2023-04-08T07:55:01;102663.00;;;6.28;100.00
10824;BME280;39116;59.332;18.034;2023-04-08T07:57:25;102658.00;;;6.31;100.00
10824;BME280;39116;59.332;18.034;2023-04-08T07:59:47;102659.31;;;6.71;100.00
10824;BME280;39116;59.332;18.034;2023-04-08T08:02:09;102651.47;;;6.69;100.00
10824;BME280;39116;59.332;18.034;2023-04-08T08:04:31;102658.66;;;6.75;100.00
10824;BME280;39116;59.332;18.034;2023-04-08T08:06:55;102663.91;;;6.91;100.00
10824;BME280;39116;59.332;18.034;2023-04-08T08:09:16;102663.94;;;6.93;100.00
10824;BME280;39116;59.332;18.034;2023-04-08T08:11:38;102672.06;;;6.99;100.00
10824;BME280;39116;59.332;18.034;2023-04-08T08:14:00;102663.16;;;6.94;100.00
10824;BME280;39116;59.332;18.034;2023-04-08T08:16:27;102663.94;;;6.93;100.00
10824;BME280;39116;59.332;18.034;2023-04-08T08:18:49;102657.50;;;7.17;97.49
10824;BME280;39116;59.332;18.034;2023-04-08T08:21:11;102661.22;;;7.22;97.85
10824;BME280;39116;59.332;18.034;2023-04-08T08:23:34;102660.50;;;7.25;98.42
10824;BME280;39116;59.332;18.034;2023-04-08T08:26:00;102662.44;;;7.29;97.71
10824;BME280;39116;59.332;18.034;2023-04-08T08:28:22;102656.50;;;7.32;95.01
10824;BME280;39116;59.332;18.034;2023-04-08T08:30:44;102669.44;;;7.48;94.22
10824;BME280;39116;59.332;18.034;2023-04-08T08:33:06;102659.94;;;7.31;93.89
10824;BME280;39116;59.332;18.034;2023-04-08T08:35:28;102668.31;;;7.59;93.79
10824;BME280;39116;59.332;18.034;2023-04-08T08:37:50;102660.16;;;7.35;92.88
10824;BME280;39116;59.332;18.034;2023-04-08T08:40:13;102665.06;;;7.63;91.07
10824;BME280;39116;59.332;18.034;2023-04-08T08:42:36;102642.34;;;7.41;88.80
10824;BME280;39116;59.332;18.034;2023-04-08T08:45:01;102648.09;;;7.52;87.32
10824;BME280;39116;59.332;18.034;2023-04-08T08:47:23;102657.53;;;7.68;86.45
10824;BME280;39116;59.332;18.034;2023-04-08T08:49:46;102658.41;;;7.69;85.35
10824;BME280;39116;59.332;18.034;2023-04-08T08:52:08;102664.72;;;7.74;84.01
10824;BME280;39116;59.332;18.034;2023-04-08T08:54:30;102668.66;;;7.83;84.34
10824;BME280;39116;59.332;18.034;2023-04-08T08:56:54;102664.53;;;7.87;85.82
10824;BME280;39116;59.332;18.034;2023-04-08T08:59:16;102661.22;;;7.90;82.05
10824;BME280;39116;59.332;18.034;2023-04-08T09:01:38;102670.31;;;7.99;78.21
10824;BME280;39116;59.332;18.034;2023-04-08T09:04:12;102656.56;;;8.00;76.60
10824;BME280;39116;59.332;18.034;2023-04-08T09:06:36;102662.91;;;8.07;76.76
10824;BME280;39116;59.332;18.034;2023-04-08T09:08:58;102668.69;;;8.19;76.82
10824;BME280;39116;59.332;18.034;2023-04-08T09:11:20;102659.38;;;8.23;72.02
10824;BME280;39116;59.332;18.034;2023-04-08T09:13:45;102653.38;;;8.24;71.50
10824;BME280;39116;59.332;18.034;2023-04-08T09:16:08;102663.50;;;8.37;70.56
10824;BME280;39116;59.332;18.034;2023-04-08T09:18:30;102646.97;;;8.35;69.80
10824;BME280;39116;59.332;18.034;2023-04-08T09:20:52;102649.13;;;8.26;70.66
10824;BME280;39116;59.332;18.034;2023-04-08T09:23:14;102658.16;;;8.34;70.43
10824;BME280;39116;59.332;18.034;2023-04-08T09:25:36;102646.91;;;8.34;67.29
10824;BME280;39116;59.332;18.034;2023-04-08T09:27:58;102649.16;;;8.44;65.46
10824;BME280;39116;59.332;18.034;2023-04-08T09:30:24;102639.94;;;8.69;67.04
10824;BME280;39116;59.332;18.034;2023-04-08T09:32:47;102643.44;;;8.51;66.37
10824;BME280;39116;59.332;18.034;2023-04-08T09:35:10;102645.72;;;8.63;64.37
10824;BME280;39116;59.332;18.034;2023-04-08T09:37:32;102649.38;;;8.49;61.50
10824;BME280;39116;59.332;18.034;2023-04-08T09:39:54;102618.00;;;8.62;61.57
10824;BME280;39116;59.332;18.034;2023-04-08T09:42:18;102515.09;;;7.89;62.70
10824;BME280;39116;59.332;18.034;2023-04-08T09:44:44;102649.88;;;8.59;60.11
10824;BME280;39116;59.332;18.034;2023-04-08T09:47:14;102651.06;;;8.66;59.96
10824;BME280;39116;59.332;18.034;2023-04-08T09:49:42;102647.84;;;8.72;58.72
10824;BME280;39116;59.332;18.034;2023-04-08T09:52:10;102656.25;;;8.66;58.29
10824;BME280;39116;59.332;18.034;2023-04-08T09:54:38;102653.66;;;8.66;56.77
10824;BME280;39116;59.332;18.034;2023-04-08T09:57:07;102644.22;;;8.68;57.20
10824;BME280;39116;59.332;18.034;2023-04-08T09:59:33;102615.88;;;8.73;56.07
10824;BME280;39116;59.332;18.034;2023-04-08T10:02:00;102652.97;;;8.88;54.75
10824;BME280;39116;59.332;18.034;2023-04-08T10:04:28;102660.25;;;8.97;53.79
10824;BME280;39116;59.332;18.034;2023-04-08T10:06:53;102633.38;;;8.77;54.90
10824;BME280;39116;59.332;18.034;2023-04-08T10:09:18;102645.50;;;8.96;54.66
10824;BME280;39116;59.332;18.034;2023-04-08T10:11:40;102644.53;;;8.94;53.39
10824;BME280;39116;59.332;18.034;2023-04-08T10:14:02;102641.81;;;8.91;53.38
10824;BME280;39116;59.332;18.034;2023-04-08T10:16:25;102632.84;;;8.84;50.80
10824;BME280;39116;59.332;18.034;2023-04-08T10:18:47;102640.63;;;9.04;50.11
10824;BME280;39116;59.332;18.034;2023-04-08T10:24:09;102647.81;;;9.09;49.76
10824;BME280;39116;59.332;18.034;2023-04-08T10:26:33;102643.47;;;9.28;50.24
10824;BME280;39116;59.332;18.034;2023-04-08T10:31:44;102638.66;;;8.98;48.94
10824;BME280;39116;59.332;18.034;2023-04-08T10:34:14;102634.25;;;9.36;49.87
10824;BME280;39116;59.332;18.034;2023-04-08T10:36:37;102637.63;;;9.33;48.68
10824;BME280;39116;59.332;18.034;2023-04-08T10:38:59;102640.81;;;9.47;49.21
10824;BME280;39116;59.332;18.034;2023-04-08T10:41:24;102618.19;;;9.25;48.78
10824;BME280;39116;59.332;18.034;2023-04-08T10:43:46;102637.94;;;9.61;50.07
10824;BME280;39116;59.332;18.034;2023-04-08T10:46:09;102628.03;;;9.73;50.37
10824;BME280;39116;59.332;18.034;2023-04-08T10:48:31;102615.22;;;9.57;47.85
10824;BME280;39116;59.332;18.034;2023-04-08T10:50:54;102637.53;;;9.51;46.80
10824;BME280;39116;59.332;18.034;2023-04-08T10:53:16;102617.41;;;9.47;45.45
10824;BME280;39116;59.332;18.034;2023-04-08T10:55:38;102627.75;;;9.67;44.72
10824;BME280;39116;59.332;18.034;2023-04-08T10:58:06;102623.84;;;9.55;44.22
10824;BME280;39116;59.332;18.034;2023-04-08T11:00:32;102596.25;;;9.18;44.29
10824;BME280;39116;59.332;18.034;2023-04-08T11:02:54;102625.94;;;9.64;44.57
10824;BME280;39116;59.332;18.034;2023-04-08T11:05:21;102626.13;;;9.90;44.72
10824;BME280;39116;59.332;18.034;2023-04-08T11:07:43;102623.78;;;9.75;43.85
10824;BME280;39116;59.332;18.034;2023-04-08T11:10:06;102618.53;;;9.73;43.38
10824;BME280;39116;59.332;18.034;2023-04-08T11:12:28;102614.84;;;9.68;43.22
10824;BME280;39116;59.332;18.034;2023-04-08T11:14:53;102629.09;;;9.99;42.69
10824;BME280;39116;59.332;18.034;2023-04-08T11:17:15;102619.69;;;10.03;42.13
10824;BME280;39116;59.332;18.034;2023-04-08T11:19:37;102616.59;;;10.11;44.64
10824;BME280;39116;59.332;18.034;2023-04-08T11:21:59;102608.72;;;10.10;43.64
10824;BME280;39116;59.332;18.034;2023-04-08T11:24:22;102616.34;;;10.05;42.72
10824;BME280;39116;59.332;18.034;2023-04-08T11:26:44;102625.47;;;9.96;41.40
10824;BME280;39116;59.332;18.034;2023-04-08T11:29:10;102623.59;;;9.91;40.17
10824;BME280;39116;59.332;18.034;2023-04-08T11:31:35;102610.13;;;10.02;40.69
10824;BME280;39116;59.332;18.034;2023-04-08T11:33:57;102614.19;;;10.16;41.10
10824;BME280;39116;59.332;18.034;2023-04-08T11:36:19;102626.19;;;10.12;41.52
10824;BME280;39116;59.332;18.034;2023-04-08T11:38:42;102612.25;;;10.12;41.43
10824;BME280;39116;59.332;18.034;2023-04-08T11:41:04;102611.31;;;10.31;40.35
10824;BME280;39116;59.332;18.034;2023-04-08T11:43:26;102592.66;;;10.20;40.59
10824;BME280;39116;59.332;18.034;2023-04-08T11:45:48;102621.50;;;10.26;40.66
10824;BME280;39116;59.332;18.034;2023-04-08T11:48:12;102615.63;;;10.53;40.80
10824;BME280;39116;59.332;18.034;2023-04-08T11:50:34;102610.69;;;10.59;40.06
10824;BME280;39116;59.332;18.034;2023-04-08T11:52:56;102603.69;;;10.58;39.49
10824;BME280;39116;59.332;18.034;2023-04-08T11:55:23;102607.06;;;10.56;37.40
10824;BME280;39116;59.332;18.034;2023-04-08T11:57:45;102601.59;;;10.49;36.55
10824;BME280;39116;59.332;18.034;2023-04-08T12:00:08;102608.88;;;10.81;36.53
10824;BME280;39116;59.332;18.034;2023-04-08T12:02:30;102604.94;;;10.92;36.42
10824;BME280;39116;59.332;18.034;2023-04-08T12:04:53;102603.53;;;10.78;35.87
10824;BME280;39116;59.332;18.034;2023-04-08T12:07:15;102589.09;;;10.86;35.82
10824;BME280;39116;59.332;18.034;2023-04-08T12:09:37;102600.59;;;10.68;34.23
10824;BME280;39116;59.332;18.034;2023-04-08T12:11:59;102597.38;;;11.00;34.02
10824;BME280;39116;59.332;18.034;2023-04-08T12:14:21;102594.38;;;10.89;34.02
10824;BME280;39116;59.332;18.034;2023-04-08T12:16:44;102593.72;;;11.19;34.30
10824;BME280;39116;59.332;18.034;2023-04-08T12:19:06;102589.06;;;11.34;35.30
10824;BME280;39116;59.332;18.034;2023-04-08T12:21:30;102594.03;;;11.52;34.88
10824;BME280;39116;59.332;18.034;2023-04-08T12:23:53;102578.41;;;11.28;35.87
10824;BME280;39116;59.332;18.034;2023-04-08T12:26:15;102585.47;;;11.83;34.23